X  Κλείσε Στοιχεία αεροπορικών μετεωρολογικών δεδομένων METAR        EDDR Saarbrücken
θερμοκρασία
21°C θερμοκρασία
16°C Σημείο δρόσου
73% Υγρασία



Ανεμος
4 KM/H
2 MPH
1 M/S
2 KTS



-1°
VRB
Τρέχουσες συνθήκες

Mostly Cloudy with Thunderstorms Κυρίως συννεφιά , Thunderstorms
πίεση 1009 (hPa) - 29.79 (inHg)
Ορατότητα 2 (μίλι) - 4 (km)
Aεροδρόμιο
Κωδικός αεροδρομίου EDDR

Τοποθεσία: Saarbrücken
Απόσταση: 8 (km)

Metar:
METAR EDDR 251520Z VRB02KT 4000 TSRA SCT023TCU BKN030CB 21/16 Q1010 TEMPO 8000 -TSRA

ώρα: 25-07-2021 17:20 CEST